Time;durP1;ratioP1;P1;durP2;ratioP2;P2;SDS_P1;SDS_P2;PMS_P1;PMS_P2;Temp;Humidity;BMP_temperature;BMP_pressure;BME280_temperature;BME280_humidity;BME280_pressure;Samples;Min_cycle;Max_cycle;Signal;HPM_P1;HPM_P2
2021/12/23 00:00:52;;;;;;;35.75;33.45;;;0.00;99.90;;;;;;4132990;28;20513;-49
2021/12/23 00:02:54;;;;;;;36.00;33.75;;;-0.10;99.90;;;;;;4160553;28;20116;-50
2021/12/23 00:04:57;;;;;;;34.60;32.25;;;0.00;99.90;;;;;;4158508;28;20046;-48
2021/12/23 00:06:59;;;;;;;36.67;34.22;;;0.00;99.90;;;;;;4158826;28;20045;-50
2021/12/23 00:09:03;;;;;;;45.47;40.83;;;-0.10;99.90;;;;;;4155115;28;20037;-50
2021/12/23 00:11:06;;;;;;;69.88;54.97;;;-0.10;99.90;;;;;;4155409;28;20133;-50
2021/12/23 00:13:08;;;;;;;44.70;39.72;;;-0.20;99.90;;;;;;4160324;28;20045;-49
2021/12/23 00:17:58;;;;;;;42.63;35.03;;;0.00;99.90;;;;;;4131276;28;20057;-47
2021/12/23 00:23:24;;;;;;;40.63;32.97;;;0.00;99.90;;;;;;4143644;28;20706;-47
2021/12/23 00:24:43;;;;;;;38.45;33.05;;;0.00;99.90;;;;;;4128584;28;20422;-50
2021/12/23 00:26:45;;;;;;;37.60;34.10;;;-0.10;99.90;;;;;;4140599;28;20061;-50
2021/12/23 00:28:47;;;;;;;34.35;31.02;;;-0.20;99.90;;;;;;4144823;28;20042;-48
2021/12/23 00:30:49;;;;;;;38.20;34.25;;;-0.20;99.90;;;;;;4141195;28;20042;-50
2021/12/23 00:32:54;;;;;;;42.20;38.00;;;-0.20;99.90;;;;;;4144618;28;20045;-50
2021/12/23 00:34:57;;;;;;;45.80;41.05;;;-0.20;99.90;;;;;;4141028;28;20098;-51
2021/12/23 00:37:00;;;;;;;45.40;40.85;;;-0.30;99.90;;;;;;4144245;28;20050;-51
2021/12/23 00:39:06;;;;;;;46.13;41.45;;;-0.40;99.90;;;;;;4140838;28;20139;-50
2021/12/23 00:41:09;;;;;;;47.75;43.08;;;-0.50;99.90;;;;;;4140209;28;20049;-48
2021/12/23 00:43:11;;;;;;;45.13;40.75;;;-0.60;99.90;;;;;;4139951;28;20057;-51
2021/12/23 00:45:13;;;;;;;49.47;45.00;;;-0.70;99.90;;;;;;4144662;28;20049;-49
2021/12/23 00:47:15;;;;;;;48.10;44.05;;;-0.80;99.90;;;;;;4140473;28;20050;-49
2021/12/23 00:49:17;;;;;;;48.58;44.30;;;-0.80;99.90;;;;;;4156144;28;20080;-50
2021/12/23 00:51:20;;;;;;;43.25;39.40;;;-0.80;99.90;;;;;;4158741;28;20091;-48
2021/12/23 00:53:23;;;;;;;42.38;39.40;;;-0.90;99.90;;;;;;4159529;28;20041;-51
2021/12/23 00:55:25;;;;;;;41.53;38.33;;;-0.90;99.90;;;;;;4159804;28;20408;-50
2021/12/23 00:57:29;;;;;;;110.00;68.65;;;-0.80;99.90;;;;;;4162137;28;20034;-50
2021/12/23 00:59:32;;;;;;;93.88;59.38;;;-0.60;99.90;;;;;;4161357;28;20099;-50
2021/12/23 01:01:34;;;;;;;;;;;-0.70;99.90;;;;;;4162035;28;20076;-50
2021/12/23 01:03:37;;;;;;;62.43;47.77;;;-0.60;99.90;;;;;;4155494;28;20316;-48
2021/12/23 01:05:39;;;;;;;;;;;-0.60;99.90;;;;;;4157995;28;20060;-50
2021/12/23 01:07:42;;;;;;;43.33;40.03;;;-0.70;99.90;;;;;;4153594;28;19924;-50
2021/12/23 01:09:44;;;;;;;;;;;-0.80;99.90;;;;;;4162462;28;20048;-49
2021/12/23 01:11:48;;;;;;;46.78;42.30;;;-0.90;99.90;;;;;;4158373;28;19932;-49
2021/12/23 01:16:24;;;;;;;45.63;41.40;;;-0.80;99.90;;;;;;4158566;28;20460;-50
2021/12/23 01:18:31;;;;;;;45.80;42.30;;;-0.70;99.90;;;;;;4160450;28;20561;-48
2021/12/23 01:20:36;;;;;;;44.42;40.55;;;-0.70;99.90;;;;;;4161574;28;20048;-51
2021/12/23 01:22:38;;;;;;;134.85;51.22;;;-0.80;99.90;;;;;;4150357;28;20097;-49
2021/12/23 01:24:40;;;;;;;132.93;50.20;;;-0.90;99.90;;;;;;4154445;28;20108;-47
2021/12/23 01:26:42;;;;;;;53.33;48.22;;;-0.90;99.90;;;;;;4157088;28;20088;-48
2021/12/23 01:28:46;;;;;;;45.97;42.28;;;-0.90;99.90;;;;;;4156455;28;20033;-49
2021/12/23 01:30:48;;;;;;;45.08;41.15;;;-0.80;99.90;;;;;;4162414;28;20041;-50
2021/12/23 01:32:52;;;;;;;;;;;-0.70;99.90;;;;;;4160506;28;20116;-48
2021/12/23 01:34:54;;;;;;;44.17;40.25;;;-0.70;99.90;;;;;;4151668;28;19968;-49
2021/12/23 01:36:57;;;;;;;43.20;39.58;;;-0.70;99.90;;;;;;4153425;28;20116;-48
2021/12/23 01:38:59;;;;;;;43.20;39.15;;;-0.60;99.90;;;;;;4163240;28;20092;-49
2021/12/23 01:41:01;;;;;;;44.15;40.83;;;-0.60;99.90;;;;;;4156853;28;20552;-49
2021/12/23 01:43:04;;;;;;;44.80;41.20;;;-0.60;99.90;;;;;;4151063;28;20084;-50
2021/12/23 01:45:13;;;;;;;42.95;39.63;;;-0.60;99.90;;;;;;4154082;28;20033;-47
2021/12/23 01:47:15;;;;;;;43.28;39.90;;;-0.70;99.90;;;;;;4154324;28;20068;-51
2021/12/23 01:49:17;;;;;;;43.15;39.63;;;-0.80;99.90;;;;;;4157929;28;20473;-47
2021/12/23 01:51:20;;;;;;;51.35;46.58;;;-0.80;99.90;;;;;;4162191;28;20095;-48
2021/12/23 01:53:22;;;;;;;53.10;48.47;;;-0.90;99.90;;;;;;4162033;28;20514;-51
2021/12/23 01:55:25;;;;;;;49.13;44.92;;;-0.80;99.90;;;;;;4161857;28;20069;-47
2021/12/23 01:57:31;;;;;;;46.97;43.28;;;-0.80;99.90;;;;;;4155414;28;20033;-47
2021/12/23 01:59:34;;;;;;;48.75;44.80;;;-0.80;99.90;;;;;;4156590;28;20034;-50
2021/12/23 02:01:41;;;;;;;51.70;46.90;;;-0.80;99.90;;;;;;4157466;28;20044;-47
2021/12/23 02:03:43;;;;;;;49.40;44.63;;;-0.90;99.90;;;;;;4157115;28;20088;-49
2021/12/23 02:05:46;;;;;;;51.42;46.92;;;-0.90;99.90;;;;;;4158287;28;20398;-50
2021/12/23 02:08:05;;;;;;;45.63;41.78;;;-0.90;99.90;;;;;;4160220;28;20058;-50
2021/12/23 02:10:08;;;;;;;45.83;42.22;;;-0.90;99.90;;;;;;4159518;28;20413;-49
2021/12/23 02:12:10;;;;;;;48.40;44.67;;;-0.90;99.90;;;;;;4168945;28;20111;-49
2021/12/23 02:14:13;;;;;;;50.22;45.90;;;-0.90;99.90;;;;;;4159135;28;20131;-47
2021/12/23 02:16:15;;;;;;;46.25;42.80;;;-1.10;99.90;;;;;;4162003;28;20037;-49
2021/12/23 02:18:20;;;;;;;47.65;44.00;;;-1.20;99.90;;;;;;4157788;28;20041;-48
2021/12/23 02:20:25;;;;;;;50.13;45.88;;;-1.20;99.90;;;;;;4161339;28;20042;-51
2021/12/23 02:22:27;;;;;;;44.08;40.72;;;-1.20;99.90;;;;;;4162693;28;20033;-51
2021/12/23 02:24:29;;;;;;;47.58;43.65;;;-1.10;99.90;;;;;;4162868;28;20433;-50
2021/12/23 02:26:37;;;;;;;47.88;44.35;;;-1.20;99.90;;;;;;4158948;28;20033;-50
2021/12/23 02:28:40;;;;;;;51.65;47.40;;;-1.20;99.90;;;;;;4155612;28;20037;-49
2021/12/23 02:30:42;;;;;;;45.78;42.22;;;-1.30;99.90;;;;;;4154659;28;20052;-48
2021/12/23 02:32:45;;;;;;;51.22;46.80;;;-1.30;99.90;;;;;;4165391;28;20041;-49
2021/12/23 02:34:47;;;;;;;49.55;45.05;;;-1.30;99.90;;;;;;4162551;28;20048;-48
2021/12/23 02:36:52;;;;;;;52.50;47.75;;;-1.40;99.90;;;;;;4165535;28;20498;-50
2021/12/23 02:38:54;;;;;;;51.75;47.35;;;-1.40;99.90;;;;;;4162603;28;20041;-51
2021/12/23 02:40:57;;;;;;;50.50;46.40;;;-1.30;99.90;;;;;;4161513;28;20038;-48
2021/12/23 02:43:16;;;;;;;48.55;44.72;;;-1.30;99.90;;;;;;4152885;28;20429;-49
2021/12/23 02:45:18;;;;;;;51.83;47.55;;;-1.30;99.90;;;;;;4165027;28;20042;-48
2021/12/23 02:47:20;;;;;;;51.88;47.35;;;-1.30;99.90;;;;;;4161374;28;20041;-50
2021/12/23 02:49:23;;;;;;;53.25;48.50;;;-1.20;99.90;;;;;;4164002;28;20575;-48
2021/12/23 02:51:25;;;;;;;51.47;47.30;;;-1.40;99.90;;;;;;4163378;28;20071;-50
2021/12/23 02:53:27;;;;;;;52.65;48.17;;;-1.50;99.90;;;;;;4161378;28;20047;-50
2021/12/23 02:55:29;;;;;;;50.80;46.35;;;-1.70;99.90;;;;;;4155008;28;20026;-50
2021/12/23 02:57:33;;;;;;;137.82;53.35;;;-1.80;99.90;;;;;;4162419;28;20033;-50
2021/12/23 02:59:35;;;;;;;50.50;45.05;;;-1.90;99.90;;;;;;4163893;28;20045;-51
2021/12/23 03:01:37;;;;;;;200.93;54.45;;;-2.00;99.90;;;;;;4163454;28;20037;-49
2021/12/23 03:03:40;;;;;;;158.52;51.72;;;-2.00;99.90;;;;;;4159969;28;20037;-47
2021/12/23 03:05:54;;;;;;;85.07;46.80;;;-2.10;99.90;;;;;;4163697;28;20037;-50
2021/12/23 03:07:58;;;;;;;135.90;47.72;;;-2.10;99.90;;;;;;4161531;28;20120;-50
2021/12/23 03:10:03;;;;;;;113.97;47.95;;;-2.20;99.90;;;;;;4157460;28;20553;-50
2021/12/23 03:12:06;;;;;;;132.70;48.10;;;-2.20;99.90;;;;;;4152876;28;20037;-51
2021/12/23 03:14:08;;;;;;;156.88;54.05;;;-2.20;99.90;;;;;;4164309;28;20041;-52
2021/12/23 03:16:12;;;;;;;101.82;47.65;;;-2.30;99.90;;;;;;4161801;28;20042;-51
2021/12/23 03:18:14;;;;;;;97.97;48.20;;;-2.20;99.90;;;;;;4162487;28;20060;-48
2021/12/23 03:20:16;;;;;;;111.63;43.35;;;-2.20;99.90;;;;;;4155769;28;20092;-47
2021/12/23 03:22:19;;;;;;;42.67;40.38;;;-2.20;99.90;;;;;;4161256;28;20108;-50
2021/12/23 03:24:21;;;;;;;;;;;-2.00;99.90;;;;;;4151299;28;20034;-50
2021/12/23 03:26:24;;;;;;;47.88;43.30;;;-2.00;99.90;;;;;;4163092;28;19928;-47
2021/12/23 03:28:26;;;;;;;48.83;44.85;;;-2.00;99.90;;;;;;4162270;28;20088;-51
2021/12/23 03:30:29;;;;;;;66.68;51.33;;;-1.90;99.90;;;;;;4162924;28;20044;-51
2021/12/23 03:32:31;;;;;;;;;;;-1.90;99.90;;;;;;4162593;28;20188;-48
2021/12/23 03:34:33;;;;;;;53.97;49.17;;;-1.90;99.90;;;;;;4164088;28;19925;-51
2021/12/23 03:36:36;;;;;;;50.35;46.53;;;-1.90;99.90;;;;;;4161103;28;20493;-48
2021/12/23 03:38:39;;;;;;;50.47;45.28;;;-1.80;99.90;;;;;;4163084;28;20033;-49
2021/12/23 03:40:42;;;;;;;64.75;45.72;;;-1.80;99.90;;;;;;4160051;28;20041;-50
2021/12/23 03:42:44;;;;;;;47.60;44.40;;;-1.80;99.90;;;;;;4163009;28;20041;-48
2021/12/23 03:44:47;;;;;;;47.75;44.35;;;-1.80;99.90;;;;;;4160501;28;20105;-47
2021/12/23 03:46:49;;;;;;;51.90;47.30;;;-1.70;99.90;;;;;;4162717;28;20095;-48
2021/12/23 03:48:51;;;;;;;54.72;50.05;;;-1.70;99.90;;;;;;4161739;28;20505;-48
2021/12/23 03:50:53;;;;;;;50.72;46.22;;;-1.80;99.90;;;;;;4161681;28;20041;-49
2021/12/23 03:52:56;;;;;;;48.40;44.75;;;-1.80;99.90;;;;;;4152042;28;20394;-50
2021/12/23 03:54:58;;;;;;;;;;;-1.80;99.90;;;;;;4160432;28;20033;-49
2021/12/23 03:57:00;;;;;;;53.03;48.25;;;-1.70;99.90;;;;;;4163520;28;19990;-47
2021/12/23 03:59:03;;;;;;;51.03;46.55;;;-1.70;99.90;;;;;;4161220;28;20045;-49
2021/12/23 04:01:06;;;;;;;51.15;47.13;;;-1.70;99.90;;;;;;4152193;28;20038;-50
2021/12/23 04:03:09;;;;;;;46.75;42.92;;;-1.70;99.90;;;;;;4160191;28;20520;-47
2021/12/23 04:05:12;;;;;;;54.80;49.83;;;-1.50;99.90;;;;;;4148656;28;20096;-48
2021/12/23 04:07:16;;;;;;;;;;;-1.50;99.90;;;;;;4161442;28;20081;-50
2021/12/23 04:09:18;;;;;;;52.42;47.95;;;-1.60;99.90;;;;;;4163308;28;19964;-51
2021/12/23 04:11:22;;;;;;;48.53;44.72;;;-1.60;99.90;;;;;;4159380;28;20374;-47
2021/12/23 04:13:28;;;;;;;54.53;50.20;;;-1.60;99.90;;;;;;4149555;28;20456;-50
2021/12/23 04:15:30;;;;;;;55.28;50.10;;;-1.60;99.90;;;;;;4160563;28;20037;-47
2021/12/23 04:17:33;;;;;;;57.72;51.72;;;-1.50;99.90;;;;;;4163122;28;20046;-51
2021/12/23 04:19:35;;;;;;;55.25;50.72;;;-1.70;99.90;;;;;;4159159;28;20041;-47
2021/12/23 04:21:39;;;;;;;47.75;44.10;;;-1.70;99.90;;;;;;4163318;28;20041;-51
2021/12/23 04:23:41;;;;;;;51.10;47.22;;;-1.60;99.90;;;;;;4158535;28;20448;-48
2021/12/23 04:25:43;;;;;;;55.92;51.38;;;-1.50;99.90;;;;;;4169790;28;20524;-51
2021/12/23 04:27:47;;;;;;;52.60;47.20;;;-1.50;99.90;;;;;;4159085;28;20042;-48
2021/12/23 04:29:49;;;;;;;101.22;53.28;;;-1.50;99.90;;;;;;4155474;28;20442;-50
2021/12/23 04:31:52;;;;;;;164.13;54.97;;;-1.50;99.90;;;;;;4161221;28;20120;-49
2021/12/23 04:33:54;;;;;;;55.17;50.35;;;-1.60;99.90;;;;;;4162304;28;20046;-49
2021/12/23 04:35:56;;;;;;;52.58;48.33;;;-1.60;99.90;;;;;;4159112;28;20541;-50
2021/12/23 04:37:58;;;;;;;50.78;45.78;;;-1.50;99.90;;;;;;4162177;28;20087;-50
2021/12/23 04:40:01;;;;;;;95.60;53.65;;;-1.50;99.90;;;;;;4160476;28;20044;-51
2021/12/23 04:42:03;;;;;;;;;;;-1.60;99.90;;;;;;4160751;28;20635;-50
2021/12/23 04:44:06;;;;;;;57.17;51.13;;;-1.70;99.90;;;;;;4159936;28;19932;-51
2021/12/23 04:46:08;;;;;;;52.05;47.10;;;-1.60;99.90;;;;;;4162573;28;20049;-50
2021/12/23 04:48:10;;;;;;;47.58;44.63;;;-1.60;99.90;;;;;;4159453;28;20405;-47
2021/12/23 04:50:15;;;;;;;52.88;48.38;;;-1.60;99.90;;;;;;4161966;28;20041;-48
2021/12/23 04:52:17;;;;;;;54.00;48.55;;;-1.50;99.90;;;;;;4160333;28;20052;-51
2021/12/23 04:54:19;;;;;;;52.55;48.67;;;-1.60;99.90;;;;;;4162289;28;20103;-48
2021/12/23 04:56:21;;;;;;;46.20;42.80;;;-1.60;99.90;;;;;;4159497;28;20042;-50
2021/12/23 04:58:24;;;;;;;48.35;45.40;;;-1.50;99.90;;;;;;4156216;28;20714;-50
2021/12/23 05:00:26;;;;;;;;;;;-1.50;99.90;;;;;;4156038;28;20394;-50
2021/12/23 05:02:28;;;;;;;44.50;42.00;;;-1.40;99.90;;;;;;4151101;28;19925;-51
2021/12/23 05:04:30;;;;;;;45.40;42.30;;;-1.30;99.90;;;;;;4152516;28;20146;-48
2021/12/23 05:06:32;;;;;;;40.58;38.17;;;-1.30;99.90;;;;;;4163424;28;20124;-51
2021/12/23 05:08:35;;;;;;;46.22;43.47;;;-1.30;99.90;;;;;;4156157;28;20045;-47
2021/12/23 05:10:37;;;;;;;43.25;40.65;;;-1.30;99.90;;;;;;4160535;28;20048;-50
2021/12/23 05:12:46;;;;;;;43.83;41.30;;;-1.30;99.90;;;;;;4153230;28;20057;-51
2021/12/23 05:14:48;;;;;;;41.85;39.13;;;-1.30;99.90;;;;;;4152162;28;20100;-50
2021/12/23 05:16:50;;;;;;;42.33;39.78;;;-1.20;99.90;;;;;;4153290;28;20037;-46
2021/12/23 05:18:53;;;;;;;46.47;43.17;;;-1.30;99.90;;;;;;4162937;28;20071;-51
2021/12/23 05:20:55;;;;;;;50.17;46.55;;;-1.30;99.90;;;;;;4151112;28;20048;-51
2021/12/23 05:22:57;;;;;;;46.05;42.92;;;-1.40;99.90;;;;;;4161960;28;20413;-50
2021/12/23 05:24:59;;;;;;;49.33;46.30;;;-1.40;99.90;;;;;;4156507;28;20041;-48
2021/12/23 05:27:02;;;;;;;48.90;45.63;;;-1.40;99.90;;;;;;4155234;28;20049;-49
2021/12/23 05:29:04;;;;;;;47.72;44.75;;;-1.40;99.90;;;;;;4149293;28;20064;-49
2021/12/23 05:31:06;;;;;;;;;;;-1.40;99.90;;;;;;4161429;28;20073;-50
2021/12/23 05:33:09;;;;;;;44.28;41.65;;;-1.30;99.90;;;;;;4159521;28;19933;-51
2021/12/23 05:35:13;;;;;;;44.70;41.70;;;-1.30;99.90;;;;;;4162506;28;20033;-50
2021/12/23 05:37:16;;;;;;;43.63;41.25;;;-1.30;99.90;;;;;;4155093;28;20543;-48
2021/12/23 05:39:18;;;;;;;43.65;41.08;;;-1.20;99.90;;;;;;4159818;28;20061;-49
2021/12/23 05:41:22;;;;;;;41.38;39.15;;;-1.10;99.90;;;;;;4157740;28;20050;-51
2021/12/23 05:43:24;;;;;;;41.72;39.35;;;-1.10;99.90;;;;;;4161833;28;20386;-47
2021/12/23 05:45:26;;;;;;;46.63;43.50;;;-1.00;99.90;;;;;;4160759;28;20044;-50
2021/12/23 05:47:28;;;;;;;44.53;41.72;;;-1.10;99.90;;;;;;4161753;28;20041;-51
2021/12/23 05:49:30;;;;;;;43.40;40.92;;;-1.10;99.90;;;;;;4158402;28;20042;-50
2021/12/23 05:51:33;;;;;;;42.58;40.10;;;-1.00;99.90;;;;;;4162630;28;20037;-50
2021/12/23 05:53:35;;;;;;;43.97;41.15;;;-1.00;99.90;;;;;;4150427;28;20050;-50
2021/12/23 05:55:37;;;;;;;44.72;42.00;;;-1.00;99.90;;;;;;4165298;28;20041;-50
2021/12/23 05:57:40;;;;;;;42.33;39.88;;;-1.00;99.90;;;;;;4174432;28;20766;-50
2021/12/23 05:59:42;;;;;;;40.67;38.67;;;-1.00;99.90;;;;;;4164815;28;20045;-51
2021/12/23 06:01:44;;;;;;;38.30;36.22;;;-0.90;99.90;;;;;;4162231;28;20146;-50
2021/12/23 06:03:47;;;;;;;41.63;39.42;;;-0.90;99.90;;;;;;4164576;28;20068;-50
2021/12/23 06:05:49;;;;;;;42.65;40.35;;;-0.90;99.90;;;;;;4156354;28;20069;-49
2021/12/23 06:07:51;;;;;;;42.50;40.28;;;-0.90;99.90;;;;;;4163203;28;20041;-50
2021/12/23 06:09:53;;;;;;;48.45;45.03;;;-1.00;99.90;;;;;;4148964;28;20038;-51
2021/12/23 06:11:55;;;;;;;54.03;49.60;;;-1.10;99.90;;;;;;4162717;28;20042;-51
2021/12/23 06:13:57;;;;;;;58.53;53.33;;;-1.20;99.90;;;;;;4163310;28;20256;-50
2021/12/23 06:16:00;;;;;;;58.30;53.40;;;-1.40;99.90;;;;;;4163978;28;20065;-49
2021/12/23 06:18:03;;;;;;;56.00;51.08;;;-1.40;99.90;;;;;;4160723;28;20068;-50
2021/12/23 06:20:07;;;;;;;54.40;49.95;;;-1.40;99.90;;;;;;4162889;28;20635;-51
2021/12/23 06:22:09;;;;;;;53.97;49.53;;;-1.30;99.90;;;;;;4155515;28;20045;-52
2021/12/23 06:24:11;;;;;;;47.70;44.03;;;-1.20;99.90;;;;;;4161730;28;20517;-51
2021/12/23 06:26:13;;;;;;;49.25;45.40;;;-1.10;99.90;;;;;;4148946;28;20038;-49
2021/12/23 06:28:15;;;;;;;47.63;44.47;;;-1.10;99.90;;;;;;4162239;28;20041;-51
2021/12/23 06:30:21;;;;;;;49.88;45.97;;;-1.10;99.90;;;;;;4162397;28;20045;-50
2021/12/23 06:32:23;;;;;;;52.10;47.85;;;-1.10;99.90;;;;;;4162795;28;20047;-50
2021/12/23 06:34:25;;;;;;;48.90;45.17;;;-1.20;99.90;;;;;;4155798;28;20042;-47
2021/12/23 06:36:27;;;;;;;48.67;45.20;;;-1.20;99.90;;;;;;4160116;28;20103;-50
2021/12/23 06:38:30;;;;;;;46.65;43.65;;;-1.20;99.90;;;;;;4156443;28;20033;-50
2021/12/23 06:40:32;;;;;;;43.40;40.67;;;-1.30;99.90;;;;;;4163047;28;20090;-48
2021/12/23 06:42:35;;;;;;;39.83;37.80;;;-1.30;99.90;;;;;;4158103;28;20045;-51
2021/12/23 06:44:37;;;;;;;44.88;41.92;;;-1.20;99.90;;;;;;4160394;28;20038;-50
2021/12/23 06:46:39;;;;;;;44.95;42.03;;;-1.10;99.90;;;;;;4149648;28;20041;-51
2021/12/23 06:48:41;;;;;;;44.88;42.13;;;-1.10;99.90;;;;;;4161317;28;20103;-51
2021/12/23 06:50:45;;;;;;;49.45;46.28;;;-1.10;99.90;;;;;;4152048;28;20049;-49
2021/12/23 06:52:48;;;;;;;52.85;48.75;;;-1.20;99.90;;;;;;4161126;28;20042;-51
2021/12/23 06:54:53;;;;;;;53.35;49.20;;;-1.30;99.90;;;;;;4161731;28;20551;-52
2021/12/23 06:56:55;;;;;;;55.58;51.15;;;-1.30;99.90;;;;;;4160799;28;20029;-49
2021/12/23 06:58:57;;;;;;;52.15;48.20;;;-1.50;99.90;;;;;;4162154;28;20041;-50
2021/12/23 07:00:59;;;;;;;52.90;48.83;;;-1.50;99.90;;;;;;4160508;28;20558;-51
2021/12/23 07:03:03;;;;;;;52.03;48.20;;;-1.50;99.90;;;;;;4155693;28;20046;-51
2021/12/23 07:05:07;;;;;;;51.53;48.08;;;-1.50;99.90;;;;;;4156342;28;20033;-51
2021/12/23 07:07:24;;;;;;;49.05;45.45;;;-1.60;99.90;;;;;;4162085;28;20049;-51
2021/12/23 07:09:26;;;;;;;51.47;47.60;;;-1.60;99.90;;;;;;4162173;28;20128;-49
2021/12/23 07:11:28;;;;;;;48.40;45.28;;;-1.60;99.90;;;;;;4163417;28;20109;-50
2021/12/23 07:13:30;;;;;;;45.33;41.72;;;-1.60;99.90;;;;;;4160994;28;20087;-51
2021/12/23 07:15:32;;;;;;;50.70;47.17;;;-1.60;99.90;;;;;;4158330;28;20034;-50
2021/12/23 07:17:35;;;;;;;66.95;61.72;;;-1.60;99.90;;;;;;4157339;28;20045;-51
2021/12/23 07:19:37;;;;;;;51.35;47.42;;;-1.60;99.90;;;;;;4176177;28;20029;-51
2021/12/23 07:21:40;;;;;;;52.22;48.63;;;-1.60;99.90;;;;;;4166227;28;20037;-52
2021/12/23 07:23:42;;;;;;;57.25;52.55;;;-1.50;99.90;;;;;;4164168;28;20472;-51
2021/12/23 07:25:44;;;;;;;58.78;53.58;;;-1.50;99.90;;;;;;4161834;28;20038;-50
2021/12/23 07:27:47;;;;;;;55.78;51.40;;;-1.50;99.90;;;;;;4161746;28;20049;-49
2021/12/23 07:29:49;;;;;;;55.92;51.70;;;-1.40;99.90;;;;;;4156873;28;20045;-50
2021/12/23 07:31:51;;;;;;;54.03;49.95;;;-1.30;99.90;;;;;;4163818;28;20091;-49
2021/12/23 07:33:53;;;;;;;53.28;49.22;;;-1.30;99.90;;;;;;4161949;28;20033;-51
2021/12/23 07:35:55;;;;;;;52.67;48.85;;;-1.20;99.90;;;;;;4162874;28;20057;-50
2021/12/23 07:38:00;;;;;;;50.17;46.17;;;-1.10;99.90;;;;;;4162515;28;20034;-50
2021/12/23 07:40:05;;;;;;;48.53;45.03;;;-1.10;99.90;;;;;;4162508;28;20037;-49
2021/12/23 07:42:14;;;;;;;47.28;44.28;;;-1.00;99.90;;;;;;4157795;28;20033;-50
2021/12/23 07:44:20;;;;;;;46.20;42.85;;;-0.80;99.90;;;;;;4156339;28;20071;-51
2021/12/23 07:46:23;;;;;;;47.35;44.05;;;-0.80;99.90;;;;;;4156130;28;20037;-52
2021/12/23 07:48:26;;;;;;;51.55;47.65;;;-0.80;99.90;;;;;;4163356;28;20245;-49
2021/12/23 07:50:28;;;;;;;57.45;52.47;;;-0.70;99.90;;;;;;4161525;28;20088;-51
2021/12/23 07:52:30;;;;;;;60.72;55.35;;;-0.60;99.90;;;;;;4171685;28;20048;-50
2021/12/23 07:54:34;;;;;;;66.32;60.22;;;-0.70;99.90;;;;;;4158410;28;20037;-52
2021/12/23 07:56:36;;;;;;;61.70;55.97;;;-0.70;99.90;;;;;;4164123;28;20095;-51
2021/12/23 07:58:38;;;;;;;58.05;53.42;;;-0.70;99.90;;;;;;4161859;28;20041;-50
2021/12/23 08:00:40;;;;;;;62.35;56.67;;;-0.70;99.90;;;;;;4163442;28;20065;-52
2021/12/23 08:02:43;;;;;;;63.35;57.75;;;-0.70;99.90;;;;;;4161945;28;20041;-49
2021/12/23 08:04:45;;;;;;;;;;;-0.70;99.90;;;;;;4154084;28;20084;-52
2021/12/23 08:06:54;;;;;;;69.32;62.67;;;-0.70;99.90;;;;;;4152700;28;19935;-51
2021/12/23 08:08:56;;;;;;;65.18;59.38;;;-0.70;99.90;;;;;;4163181;28;20065;-49
2021/12/23 08:10:58;;;;;;;65.90;60.00;;;-0.60;99.90;;;;;;4161346;28;20044;-52
2021/12/23 08:13:01;;;;;;;55.97;51.53;;;-0.60;99.90;;;;;;4153608;28;20061;-49
2021/12/23 08:15:04;;;;;;;51.13;47.40;;;-0.60;99.90;;;;;;4160283;28;20049;-52
2021/12/23 08:17:09;;;;;;;49.67;45.97;;;-0.50;99.90;;;;;;4161677;28;20124;-52
2021/12/23 08:19:11;;;;;;;58.03;53.25;;;-0.50;99.90;;;;;;4158618;28;20041;-52
2021/12/23 08:21:14;;;;;;;53.50;49.30;;;-0.50;99.90;;;;;;4163778;28;20058;-50
2021/12/23 08:23:16;;;;;;;46.15;43.03;;;-0.40;99.90;;;;;;4154309;28;20050;-52
2021/12/23 08:25:23;;;;;;;45.10;41.70;;;-0.30;99.90;;;;;;4158775;28;20503;-52
2021/12/23 08:27:28;;;;;;;42.50;39.30;;;-0.20;99.90;;;;;;4151842;28;20046;-53
2021/12/23 08:29:30;;;;;;;44.05;40.83;;;-0.20;99.90;;;;;;4162819;28;20445;-53
2021/12/23 08:31:32;;;;;;;40.28;37.60;;;-0.10;99.90;;;;;;4160082;28;20045;-51
2021/12/23 08:33:34;;;;;;;45.38;41.85;;;0.00;99.90;;;;;;4163484;28;20134;-50
2021/12/23 08:35:37;;;;;;;54.97;49.88;;;0.00;99.90;;;;;;4157586;28;20033;-51
2021/12/23 08:37:40;;;;;;;55.53;50.55;;;0.00;99.90;;;;;;4162820;28;20037;-51
2021/12/23 08:39:43;;;;;;;59.75;54.13;;;0.10;99.90;;;;;;4159891;28;20033;-51
2021/12/23 08:41:46;;;;;;;46.33;41.53;;;0.10;99.90;;;;;;4162733;28;20603;-51
2021/12/23 08:43:48;;;;;;;55.97;50.70;;;0.10;99.90;;;;;;4158690;28;20030;-52
2021/12/23 08:45:51;;;;;;;52.97;48.35;;;0.10;99.90;;;;;;4162280;28;20500;-51
2021/12/23 08:47:57;;;;;;;50.53;45.58;;;0.20;99.90;;;;;;4160961;28;20121;-52
2021/12/23 08:50:00;;;;;;;51.95;47.28;;;0.10;99.90;;;;;;4160715;28;20065;-52
2021/12/23 08:52:03;;;;;;;53.20;48.47;;;0.10;99.90;;;;;;4157427;28;20050;-51
2021/12/23 08:54:05;;;;;;;52.90;48.15;;;0.20;99.90;;;;;;4161681;28;20077;-52
2021/12/23 08:56:08;;;;;;;48.53;44.08;;;0.30;99.90;;;;;;4161023;28;20076;-51
2021/12/23 08:58:11;;;;;;;51.97;47.53;;;0.30;99.90;;;;;;4162860;28;20044;-52
2021/12/23 09:00:16;;;;;;;44.42;41.28;;;0.30;99.90;;;;;;4161123;28;20124;-52
2021/12/23 09:02:18;;;;;;;42.17;39.03;;;0.30;99.90;;;;;;4158402;28;20469;-51
2021/12/23 09:04:21;;;;;;;39.50;36.47;;;0.40;99.90;;;;;;4147921;28;20029;-51
2021/12/23 09:06:23;;;;;;;;;;;0.40;99.90;;;;;;4160188;28;20034;-53
2021/12/23 09:08:26;;;;;;;38.75;35.90;;;0.50;99.90;;;;;;4156448;28;19925;-52
2021/12/23 09:10:28;;;;;;;33.88;31.65;;;0.50;99.90;;;;;;4161624;28;20106;-53
2021/12/23 09:12:30;;;;;;;33.92;31.05;;;0.50;99.90;;;;;;4161668;28;20076;-52
2021/12/23 09:14:33;;;;;;;37.58;34.97;;;0.50;99.90;;;;;;4161617;28;20436;-52
2021/12/23 09:16:35;;;;;;;40.25;37.05;;;0.60;99.90;;;;;;4158152;28;20402;-52
2021/12/23 09:18:37;;;;;;;54.92;49.60;;;0.60;99.90;;;;;;4159670;28;20030;-52
2021/12/23 09:20:40;;;;;;;51.15;46.60;;;0.60;99.90;;;;;;4154371;28;20034;-52
2021/12/23 09:22:43;;;;;;;56.35;51.10;;;0.60;99.90;;;;;;4159982;28;20516;-51
2021/12/23 09:24:47;;;;;;;;;;;0.60;99.90;;;;;;4163399;28;20041;-51
2021/12/23 09:26:56;;;;;;;51.20;46.55;;;0.50;99.90;;;;;;4159482;28;19959;-51
2021/12/23 09:29:09;;;;;;;52.95;48.60;;;0.50;99.90;;;;;;4146210;28;20394;-52
2021/12/23 09:33:33;;;;;;;51.88;47.58;;;0.40;99.90;;;;;;4160117;28;20065;-51
2021/12/23 09:35:35;;;;;;;55.95;51.22;;;0.30;99.90;;;;;;4161458;28;20034;-52
2021/12/23 09:37:38;;;;;;;57.60;53.13;;;0.40;99.90;;;;;;4151763;28;20045;-51
2021/12/23 09:39:40;;;;;;;57.00;51.58;;;0.40;99.90;;;;;;4165468;28;20041;-51
2021/12/23 09:41:45;;;;;;;61.72;56.08;;;0.40;99.90;;;;;;4150228;28;20042;-52
2021/12/23 09:43:48;;;;;;;53.92;49.05;;;0.50;99.90;;;;;;4165096;28;20037;-52
2021/12/23 09:45:51;;;;;;;57.97;52.78;;;0.60;99.90;;;;;;4163968;28;20041;-52
2021/12/23 09:48:01;;;;;;;63.25;56.78;;;0.60;99.90;;;;;;4161012;28;20064;-52
2021/12/23 09:50:07;;;;;;;65.15;58.55;;;0.70;99.90;;;;;;4165176;28;20042;-52
2021/12/23 09:52:09;;;;;;;62.20;56.03;;;0.70;99.90;;;;;;4161065;28;20552;-51
2021/12/23 09:54:15;;;;;;;61.17;55.78;;;0.80;99.90;;;;;;4156072;28;20138;-52
2021/12/23 09:56:18;;;;;;;57.80;52.95;;;0.70;99.90;;;;;;4164067;28;20132;-52
2021/12/23 09:58:21;;;;;;;59.90;54.45;;;0.60;99.90;;;;;;4162791;28;20046;-52
2021/12/23 10:00:27;;;;;;;58.60;53.08;;;0.60;99.90;;;;;;4163479;28;20041;-52
2021/12/23 10:02:29;;;;;;;60.97;55.05;;;0.70;99.90;;;;;;4156001;28;20041;-51
2021/12/23 10:04:32;;;;;;;57.63;52.38;;;0.70;99.90;;;;;;4165391;28;20148;-52
2021/12/23 10:06:34;;;;;;;53.03;48.22;;;0.80;99.90;;;;;;4164024;28;20103;-53
2021/12/23 10:08:39;;;;;;;50.85;46.15;;;0.70;99.90;;;;;;4162621;28;20107;-52
2021/12/23 10:10:56;;;;;;;56.42;51.33;;;0.70;99.90;;;;;;4156480;28;20052;-52
2021/12/23 10:32:38;;;;;;;67.43;61.30;;;1.00;99.90;;;;;;4155994;28;20042;-52
2021/12/23 10:39:04;;;;;;;53.78;48.67;;;1.00;99.90;;;;;;4162658;28;20042;-52
2021/12/23 10:41:13;;;;;;;127.10;100.97;;;1.20;99.90;;;;;;4161295;28;20033;-52
2021/12/23 10:43:31;;;;;;;73.07;65.38;;;1.20;99.90;;;;;;4155218;28;20042;-52
2021/12/23 10:45:45;;;;;;;75.40;67.30;;;1.30;99.90;;;;;;4158763;28;20038;-51
2021/12/23 10:50:23;;;;;;;59.58;53.83;;;1.30;99.90;;;;;;4161732;28;20037;-50
2021/12/23 10:52:30;;;;;;;57.72;52.55;;;1.40;99.90;;;;;;4156815;28;20077;-51
2021/12/23 10:59:15;;;;;;;42.38;39.08;;;1.40;99.90;;;;;;4161971;28;20049;-52
2021/12/23 11:01:18;;;;;;;41.92;38.88;;;1.40;99.90;;;;;;4160244;28;20045;-51
2021/12/23 11:03:43;;;;;;;45.97;42.38;;;1.40;99.90;;;;;;4158180;28;20171;-53
2021/12/23 11:06:09;;;;;;;40.85;37.85;;;1.40;99.90;;;;;;4157651;28;20486;-50
2021/12/23 11:08:29;;;;;;;44.83;41.03;;;1.40;99.90;;;;;;4163021;28;20485;-52
2021/12/23 11:31:44;;;;;;;33.72;30.63;;;2.00;99.90;;;;;;4157727;28;20451;-52
2021/12/23 11:37:53;;;;;;;51.75;43.97;;;2.30;99.90;;;;;;4160781;28;20049;-52